KANQ/ANQ METAR and TAF weather

Enter ICAO airport designator
Station Type Date Time Source
KANQ METAR 2022/08/16 19:15 UTC NOAA

KANQ 161915Z AUTO 03007KT 010V070 10SM FEW050 SCT065 SCT075 25/15 A3008 RMK AO2


Station Type Date Time Source
KANQ Decoded METAR 2022/08/16 19:15 UTC NOAA

Station name not available
Aug 16, 2022 - 03:15 PM EDT / 2022.08.16 1915 UTC
Wind: from the NNE (030 degrees) at 8 MPH (7 KT) (direction variable):0
Visibility: 10 mile(s):0
Sky conditions: partly cloudy
Temperature: 77 F (25 C)
Dew Point: 59 F (15 C)
Relative Humidity: 53%
Pressure (altimeter): 30.08 in. Hg (1018 hPa)
ob: KANQ 161915Z AUTO 03007KT 010V070 10SM FEW050 SCT065 SCT075 25/15 A3008 RMK AO2
cycle: 19

Station Type Date Time Source
KANQ TAF UTC NOAA

Error!

Example: see airport list